Time;durP1;ratioP1;P1;durP2;ratioP2;P2;SDS_P1;SDS_P2;PMS_P1;PMS_P2;Temp;Humidity;BMP_temperature;BMP_pressure;BME280_temperature;BME280_humidity;BME280_pressure;Samples;Min_cycle;Max_cycle;Signal;HPM_P1;HPM_P2
2022/02/27 00:01:08;;;;;;;1.13;1.02;;;17.50;62.10;;;;;;5064165;28;20108;-21
2022/02/27 00:03:34;;;;;;;1.23;0.95;;;17.50;62.20;;;;;;5066591;28;20101;-23
2022/02/27 00:05:59;;;;;;;1.08;0.98;;;17.40;62.10;;;;;;5063306;28;20045;-22
2022/02/27 00:08:25;;;;;;;1.48;1.00;;;17.40;62.10;;;;;;5059806;28;20067;-22
2022/02/27 00:10:50;;;;;;;1.08;0.82;;;17.40;62.20;;;;;;5064809;28;20090;-22
2022/02/27 00:13:16;;;;;;;1.45;0.88;;;17.40;62.00;;;;;;5062584;28;20421;-22
2022/02/27 00:15:42;;;;;;;1.08;0.80;;;17.40;62.00;;;;;;5066576;28;20045;-21
2022/02/27 00:18:07;;;;;;;0.90;0.90;;;17.40;62.10;;;;;;5063792;28;20516;-22
2022/02/27 00:20:33;;;;;;;1.08;0.98;;;17.40;62.00;;;;;;5066043;28;20059;-22
2022/02/27 00:22:58;;;;;;;2.83;0.90;;;17.40;61.90;;;;;;5064783;28;20597;-21
2022/02/27 00:25:24;;;;;;;0.90;0.90;;;17.40;61.80;;;;;;5066020;28;20036;-25
2022/02/27 00:27:50;;;;;;;1.40;0.80;;;17.40;61.80;;;;;;5070376;28;20059;-23
2022/02/27 00:30:15;;;;;;;1.20;1.10;;;17.40;61.80;;;;;;5063991;28;20041;-22
2022/02/27 00:32:41;;;;;;;0.90;0.90;;;17.40;61.80;;;;;;5061590;28;20049;-22
2022/02/27 00:35:07;;;;;;;0.65;0.65;;;17.40;61.80;;;;;;5066055;28;20052;-21
2022/02/27 00:37:33;;;;;;;1.35;0.90;;;17.40;61.70;;;;;;5061896;28;20108;-21
2022/02/27 00:39:59;;;;;;;0.95;0.95;;;17.40;61.60;;;;;;5065593;28;20067;-22
2022/02/27 00:42:25;;;;;;;1.52;1.00;;;17.40;61.50;;;;;;5066097;28;20497;-23
2022/02/27 00:44:50;;;;;;;1.00;0.90;;;17.40;61.50;;;;;;5062836;28;20075;-22
2022/02/27 00:47:16;;;;;;;0.75;0.75;;;17.40;61.50;;;;;;5065522;28;20039;-21
2022/02/27 00:49:41;;;;;;;0.65;0.60;;;17.40;61.60;;;;;;5065283;28;20045;-22
2022/02/27 00:52:07;;;;;;;0.60;0.60;;;17.40;61.60;;;;;;5064144;28;20053;-22
2022/02/27 00:54:32;;;;;;;2.30;0.80;;;17.30;61.50;;;;;;5063907;28;20048;-23
2022/02/27 00:56:58;;;;;;;0.80;0.80;;;17.30;61.60;;;;;;5066247;28;20175;-21
2022/02/27 00:59:24;;;;;;;0.95;0.95;;;17.30;61.50;;;;;;5065577;28;20135;-25
2022/02/27 01:01:49;;;;;;;3.67;0.77;;;17.30;61.50;;;;;;5063296;28;20495;-22
2022/02/27 01:04:15;;;;;;;0.85;0.70;;;17.30;61.50;;;;;;5063841;28;20033;-21
2022/02/27 01:06:40;;;;;;;0.70;0.65;;;17.30;61.40;;;;;;5065173;28;20055;-21
2022/02/27 01:09:06;;;;;;;0.68;0.68;;;17.30;61.30;;;;;;5064043;28;20048;-22
2022/02/27 01:11:32;;;;;;;0.80;0.80;;;17.30;61.30;;;;;;5062616;28;20041;-22
2022/02/27 01:13:58;;;;;;;0.70;0.70;;;17.30;61.40;;;;;;5064531;28;20387;-21
2022/02/27 01:16:24;;;;;;;0.75;0.70;;;17.20;61.40;;;;;;5063001;28;20059;-22
2022/02/27 01:18:50;;;;;;;0.90;0.90;;;17.20;61.30;;;;;;5060205;28;20631;-22
2022/02/27 01:21:16;;;;;;;0.70;0.70;;;17.20;61.30;;;;;;5058791;28;20095;-23
2022/02/27 01:23:45;;;;;;;0.80;0.80;;;17.30;61.20;;;;;;5063346;28;20037;-23
2022/02/27 01:26:10;;;;;;;0.70;0.70;;;17.30;60.90;;;;;;5063700;28;20044;-21
2022/02/27 01:28:36;;;;;;;0.75;0.75;;;17.30;61.10;;;;;;5065764;28;20045;-22
2022/02/27 01:31:02;;;;;;;0.80;0.80;;;17.20;61.20;;;;;;5063648;28;20544;-22
2022/02/27 01:33:28;;;;;;;1.50;0.82;;;17.20;61.30;;;;;;5063343;28;20051;-21
2022/02/27 01:35:53;;;;;;;0.60;0.60;;;17.20;61.20;;;;;;5061867;28;20493;-23
2022/02/27 01:38:19;;;;;;;0.75;0.50;;;17.20;61.20;;;;;;5063722;28;20040;-22
2022/02/27 01:40:44;;;;;;;0.85;0.50;;;17.20;61.20;;;;;;5064416;28;20051;-21
2022/02/27 01:43:10;;;;;;;1.38;1.00;;;17.10;61.10;;;;;;5064565;28;20548;-22
2022/02/27 01:45:36;;;;;;;0.68;0.68;;;17.10;61.30;;;;;;5062999;28;20040;-24
2022/02/27 01:48:01;;;;;;;0.60;0.60;;;17.20;61.10;;;;;;5051480;28;20041;-22
2022/02/27 01:50:27;;;;;;;0.75;0.75;;;17.20;61.10;;;;;;5062502;28;20050;-22
2022/02/27 01:52:53;;;;;;;0.93;0.70;;;17.20;60.90;;;;;;5062739;28;20123;-22
2022/02/27 01:55:18;;;;;;;0.70;0.70;;;17.20;61.00;;;;;;5063876;28;20055;-21
2022/02/27 01:57:44;;;;;;;0.60;0.60;;;17.10;60.80;;;;;;5062147;28;20075;-21
2022/02/27 02:00:11;;;;;;;0.50;0.50;;;17.20;60.80;;;;;;5062705;28;20048;-21
2022/02/27 02:02:36;;;;;;;0.85;0.63;;;17.10;61.00;;;;;;5065422;28;20120;-23
2022/02/27 02:05:02;;;;;;;0.60;0.60;;;17.10;61.00;;;;;;5066460;28;20061;-20
2022/02/27 02:07:28;;;;;;;2.05;0.47;;;17.10;60.80;;;;;;5067871;28;20595;-20
2022/02/27 02:09:53;;;;;;;0.80;0.80;;;17.10;61.00;;;;;;5056927;28;20037;-21
2022/02/27 02:12:19;;;;;;;0.60;0.60;;;17.00;60.80;;;;;;5068971;28;20048;-20
2022/02/27 02:14:44;;;;;;;0.60;0.60;;;17.10;60.90;;;;;;5072806;28;20115;-21
2022/02/27 02:17:10;;;;;;;0.80;0.80;;;17.00;60.70;;;;;;5067376;28;20063;-21
2022/02/27 02:19:36;;;;;;;0.63;0.63;;;17.10;60.70;;;;;;5066701;28;20052;-22
2022/02/27 02:22:03;;;;;;;1.90;0.57;;;17.00;60.70;;;;;;5072208;28;20046;-22
2022/02/27 02:24:28;;;;;;;1.17;0.70;;;17.00;60.80;;;;;;5069187;28;20088;-21
2022/02/27 02:26:54;;;;;;;0.60;0.60;;;17.00;60.60;;;;;;5068366;28;20560;-21
2022/02/27 02:29:21;;;;;;;0.70;0.70;;;17.10;60.50;;;;;;5068949;28;20037;-22
2022/02/27 02:31:48;;;;;;;0.73;0.73;;;17.10;60.60;;;;;;5067440;28;20325;-21
2022/02/27 02:34:17;;;;;;;0.60;0.60;;;17.00;60.60;;;;;;5065961;28;20044;-21
2022/02/27 02:36:43;;;;;;;0.57;0.57;;;17.00;60.60;;;;;;5063419;28;20036;-21
2022/02/27 02:39:10;;;;;;;0.70;0.70;;;17.00;60.60;;;;;;5065339;28;20409;-21
2022/02/27 02:41:36;;;;;;;0.80;0.73;;;17.00;60.80;;;;;;5068176;28;20040;-21
2022/02/27 02:44:01;;;;;;;1.08;0.70;;;17.00;60.50;;;;;;5067585;28;20044;-22
2022/02/27 02:46:27;;;;;;;1.08;0.68;;;17.00;60.50;;;;;;5067625;28;20159;-21
2022/02/27 02:48:52;;;;;;;1.02;0.65;;;17.00;60.50;;;;;;5065579;28;20056;-21
2022/02/27 02:51:18;;;;;;;0.57;0.57;;;17.00;60.50;;;;;;5060981;28;20286;-22
2022/02/27 02:53:44;;;;;;;0.40;0.40;;;17.00;60.60;;;;;;5068453;28;20050;-22
2022/02/27 02:56:09;;;;;;;1.95;0.73;;;17.00;60.70;;;;;;5064876;28;20059;-22
2022/02/27 02:58:36;;;;;;;1.35;0.60;;;17.00;60.60;;;;;;5065924;28;20036;-22
2022/02/27 03:01:02;;;;;;;0.63;0.63;;;17.00;60.50;;;;;;5067113;28;20501;-21
2022/02/27 03:03:28;;;;;;;0.60;0.60;;;17.00;60.50;;;;;;5068619;28;20405;-24
2022/02/27 03:05:53;;;;;;;0.70;0.60;;;17.00;60.50;;;;;;5069762;28;20048;-21
2022/02/27 03:08:19;;;;;;;0.68;0.68;;;17.00;60.40;;;;;;5064690;28;20094;-21
2022/02/27 03:10:45;;;;;;;0.68;0.60;;;17.00;60.30;;;;;;5063409;28;20041;-22
2022/02/27 03:13:10;;;;;;;0.50;0.45;;;16.90;60.50;;;;;;5062894;28;20045;-22
2022/02/27 03:15:37;;;;;;;0.88;0.88;;;17.00;60.40;;;;;;5068666;28;20048;-22
2022/02/27 03:18:02;;;;;;;0.50;0.50;;;17.00;60.50;;;;;;5068779;28;20060;-23
2022/02/27 03:20:28;;;;;;;0.70;0.70;;;16.90;60.50;;;;;;5067014;28;20127;-22
2022/02/27 03:22:55;;;;;;;1.02;0.77;;;16.90;60.40;;;;;;5067700;28;20605;-21
2022/02/27 03:25:20;;;;;;;0.65;0.60;;;17.00;60.30;;;;;;5059489;28;20045;-21
2022/02/27 03:27:46;;;;;;;0.57;0.57;;;16.90;60.30;;;;;;5069366;28;20087;-22
2022/02/27 03:30:11;;;;;;;0.40;0.40;;;16.90;60.30;;;;;;5064303;28;20037;-22
2022/02/27 03:32:37;;;;;;;1.10;0.70;;;16.90;60.50;;;;;;5069337;28;20558;-22
2022/02/27 03:35:03;;;;;;;0.55;0.50;;;16.90;60.30;;;;;;5069372;28;20041;-21
2022/02/27 03:37:28;;;;;;;0.45;0.40;;;16.90;60.30;;;;;;5073586;28;20052;-22
2022/02/27 03:39:54;;;;;;;0.70;0.70;;;16.90;60.30;;;;;;5068927;28;20515;-22
2022/02/27 03:42:19;;;;;;;0.65;0.65;;;16.90;60.30;;;;;;5064804;28;20128;-22
2022/02/27 03:44:45;;;;;;;0.75;0.43;;;16.90;60.40;;;;;;5063261;28;20045;-22
2022/02/27 03:47:11;;;;;;;0.50;0.50;;;16.90;60.40;;;;;;5056651;28;20059;-22
2022/02/27 03:49:36;;;;;;;0.50;0.50;;;16.90;60.30;;;;;;5070472;28;20051;-22
2022/02/27 03:52:03;;;;;;;0.60;0.60;;;16.90;60.30;;;;;;5062837;28;20041;-22
2022/02/27 03:54:29;;;;;;;0.82;0.60;;;16.80;60.40;;;;;;5065958;28;20408;-22
2022/02/27 03:56:55;;;;;;;0.40;0.40;;;16.80;60.40;;;;;;5075522;28;20068;-22
2022/02/27 03:59:20;;;;;;;0.60;0.60;;;16.90;60.40;;;;;;5074206;28;20044;-22
2022/02/27 04:01:46;;;;;;;0.95;0.50;;;16.80;60.30;;;;;;5058197;28;20059;-22
2022/02/27 04:04:11;;;;;;;0.50;0.40;;;16.80;60.30;;;;;;5075243;28;20048;-21
2022/02/27 04:06:37;;;;;;;0.57;0.50;;;16.80;60.20;;;;;;5073807;28;20048;-22
2022/02/27 04:09:03;;;;;;;0.73;0.60;;;16.80;60.40;;;;;;5060933;28;20079;-22
2022/02/27 04:11:28;;;;;;;0.52;0.52;;;16.80;60.40;;;;;;5063660;28;20044;-22
2022/02/27 04:13:54;;;;;;;1.00;0.70;;;16.80;60.50;;;;;;5063299;28;20052;-31
2022/02/27 04:16:19;;;;;;;0.80;0.45;;;16.80;60.30;;;;;;5071935;28;20083;-22
2022/02/27 04:18:45;;;;;;;0.50;0.43;;;16.80;60.30;;;;;;5066287;28;20045;-21
2022/02/27 04:21:11;;;;;;;0.47;0.47;;;16.80;60.30;;;;;;5060880;28;20887;-22
2022/02/27 04:23:36;;;;;;;0.40;0.40;;;16.80;60.30;;;;;;5057434;28;20053;-23
2022/02/27 04:26:02;;;;;;;0.52;0.52;;;16.80;60.40;;;;;;5067671;28;20748;-21
2022/02/27 04:28:28;;;;;;;0.55;0.55;;;16.80;60.30;;;;;;5072905;28;20045;-22
2022/02/27 04:30:53;;;;;;;0.50;0.50;;;16.80;61.10;;;;;;5058804;28;20049;-22
2022/02/27 04:33:19;;;;;;;0.57;0.57;;;16.80;60.30;;;;;;5054768;28;20056;-21
2022/02/27 04:35:44;;;;;;;0.50;0.50;;;16.80;60.40;;;;;;5062980;28;20049;-22
2022/02/27 04:38:10;;;;;;;0.40;0.40;;;16.80;60.20;;;;;;5071226;28;20108;-22
2022/02/27 04:40:36;;;;;;;0.45;0.40;;;16.70;60.00;;;;;;5065835;28;20374;-21
2022/02/27 04:43:01;;;;;;;0.40;0.40;;;16.70;60.30;;;;;;5062012;28;20041;-21
2022/02/27 04:45:28;;;;;;;0.60;0.60;;;16.70;60.20;;;;;;5063746;28;20053;-22
2022/02/27 04:47:53;;;;;;;0.40;0.40;;;16.70;60.20;;;;;;5060594;28;20075;-21
2022/02/27 04:50:19;;;;;;;0.70;0.70;;;16.80;60.20;;;;;;5073930;28;20049;-22
2022/02/27 04:52:44;;;;;;;0.60;0.60;;;16.70;60.10;;;;;;5057228;28;20558;-22
2022/02/27 04:55:10;;;;;;;0.50;0.50;;;16.70;60.10;;;;;;5070036;28;20105;-23
2022/02/27 04:57:36;;;;;;;0.50;0.50;;;16.70;60.10;;;;;;5070291;28;20101;-21
2022/02/27 05:00:06;;;;;;;0.50;0.50;;;16.70;60.20;;;;;;5068249;28;20055;-21
2022/02/27 05:02:31;;;;;;;0.60;0.60;;;16.70;60.10;;;;;;5057463;28;20051;-22
2022/02/27 05:04:57;;;;;;;0.60;0.60;;;16.70;60.20;;;;;;5070945;28;20048;-22
2022/02/27 05:07:22;;;;;;;0.52;0.50;;;16.70;60.10;;;;;;5064411;28;20033;-21
2022/02/27 05:09:48;;;;;;;0.40;0.40;;;16.70;60.00;;;;;;5068439;28;20049;-21
2022/02/27 05:12:13;;;;;;;0.68;0.68;;;16.70;60.00;;;;;;5055753;28;20076;-21
2022/02/27 05:14:39;;;;;;;0.52;0.52;;;16.70;60.00;;;;;;5057614;28;20076;-21
2022/02/27 05:17:05;;;;;;;0.40;0.40;;;16.70;59.90;;;;;;5064005;28;20401;-21
2022/02/27 05:19:30;;;;;;;0.60;0.60;;;16.70;59.90;;;;;;5062332;28;20053;-20
2022/02/27 05:21:56;;;;;;;0.45;0.45;;;16.70;60.00;;;;;;5055882;28;20110;-21
2022/02/27 05:24:21;;;;;;;0.40;0.40;;;16.70;60.00;;;;;;5069131;28;20413;-21
2022/02/27 05:26:47;;;;;;;0.50;0.50;;;16.70;59.90;;;;;;5066458;28;20075;-21
2022/02/27 05:29:12;;;;;;;0.50;0.40;;;16.70;59.90;;;;;;5068172;28;20093;-20
2022/02/27 05:31:41;;;;;;;0.65;0.57;;;16.70;59.90;;;;;;5068156;28;20101;-20
2022/02/27 05:34:08;;;;;;;0.50;0.50;;;16.70;60.00;;;;;;5064964;28;20102;-21
2022/02/27 05:36:34;;;;;;;0.40;0.40;;;16.70;59.80;;;;;;5054238;28;20459;-21
2022/02/27 05:39:00;;;;;;;0.43;0.30;;;16.70;59.80;;;;;;5063026;28;20045;-21
2022/02/27 05:41:26;;;;;;;0.30;0.30;;;16.70;59.90;;;;;;5065306;28;20052;-21
2022/02/27 05:43:52;;;;;;;0.73;0.52;;;16.70;60.00;;;;;;5070650;28;20102;-21
2022/02/27 05:46:18;;;;;;;0.50;0.50;;;16.70;59.80;;;;;;5057756;28;20128;-21
2022/02/27 05:48:43;;;;;;;0.40;0.40;;;16.70;59.90;;;;;;5060842;28;20083;-21
2022/02/27 05:51:09;;;;;;;0.32;0.32;;;16.70;59.80;;;;;;5062755;28;20045;-20
2022/02/27 05:53:35;;;;;;;0.40;0.40;;;16.70;59.90;;;;;;5072030;28;20071;-20
2022/02/27 05:56:00;;;;;;;0.40;0.40;;;16.70;59.90;;;;;;5059380;28;20128;-20
2022/02/27 05:58:26;;;;;;;0.50;0.32;;;16.70;59.90;;;;;;5055118;28;20074;-20
2022/02/27 06:00:52;;;;;;;0.40;0.40;;;16.70;59.80;;;;;;5058779;28;20049;-21
2022/02/27 06:03:18;;;;;;;0.30;0.30;;;16.70;59.90;;;;;;5065022;28;20072;-21
2022/02/27 06:05:47;;;;;;;0.40;0.40;;;16.70;59.90;;;;;;5071625;28;20044;-20
2022/02/27 06:08:13;;;;;;;0.40;0.40;;;16.70;59.80;;;;;;5058335;28;20120;-21
2022/02/27 06:10:38;;;;;;;0.40;0.40;;;16.70;59.80;;;;;;5055201;28;20537;-21
2022/02/27 06:13:04;;;;;;;0.60;0.40;;;16.70;59.80;;;;;;5061136;28;20412;-20
2022/02/27 06:15:29;;;;;;;0.40;0.40;;;16.70;59.90;;;;;;5063179;28;20052;-21
2022/02/27 06:17:55;;;;;;;1.30;0.50;;;16.60;59.90;;;;;;5061703;28;20098;-22
2022/02/27 06:20:21;;;;;;;0.63;0.55;;;16.60;59.80;;;;;;5070781;28;20083;-23
2022/02/27 06:22:47;;;;;;;0.40;0.40;;;16.60;60.00;;;;;;5065310;28;20055;-21
2022/02/27 06:25:14;;;;;;;0.40;0.40;;;16.60;60.00;;;;;;5067341;28;20029;-21
2022/02/27 06:27:43;;;;;;;0.22;0.22;;;16.60;60.10;;;;;;5062798;28;20049;-20
2022/02/27 06:30:14;;;;;;;0.40;0.40;;;16.50;60.10;;;;;;5063417;28;20563;-22
2022/02/27 06:32:40;;;;;;;0.50;0.47;;;16.60;60.10;;;;;;5060240;28;20140;-21
2022/02/27 06:35:07;;;;;;;0.20;0.20;;;16.50;60.10;;;;;;5064800;28;20071;-20
2022/02/27 06:37:32;;;;;;;0.40;0.40;;;16.50;60.10;;;;;;5063128;28;20045;-22
2022/02/27 06:39:58;;;;;;;0.40;0.40;;;16.50;60.10;;;;;;5063685;28;20128;-22
2022/02/27 06:42:24;;;;;;;0.47;0.47;;;16.50;60.10;;;;;;5063785;28;20047;-21
2022/02/27 06:44:49;;;;;;;0.30;0.30;;;16.50;60.10;;;;;;5064911;28;20037;-22
2022/02/27 06:47:15;;;;;;;0.20;0.20;;;16.50;60.00;;;;;;5063637;28;20044;-21
2022/02/27 06:49:40;;;;;;;0.50;0.50;;;16.50;60.10;;;;;;5068857;28;20041;-23
2022/02/27 06:52:06;;;;;;;0.30;0.30;;;16.50;60.10;;;;;;5069183;28;20542;-21
2022/02/27 06:54:32;;;;;;;0.30;0.20;;;16.50;60.10;;;;;;5067710;28;20048;-23
2022/02/27 06:56:57;;;;;;;0.32;0.32;;;16.50;60.20;;;;;;5063829;28;20049;-22
2022/02/27 06:59:23;;;;;;;0.70;0.40;;;16.40;60.30;;;;;;5072424;28;20178;-21
2022/02/27 07:01:49;;;;;;;0.50;0.50;;;16.50;60.20;;;;;;5069888;28;20045;-23
2022/02/27 07:04:14;;;;;;;0.38;0.38;;;16.40;60.30;;;;;;5068036;28;20040;-20
2022/02/27 07:06:40;;;;;;;0.40;0.40;;;16.50;60.30;;;;;;5066655;28;20070;-21
2022/02/27 07:09:07;;;;;;;0.30;0.30;;;16.50;60.20;;;;;;5063684;28;20424;-22
2022/02/27 07:11:32;;;;;;;0.50;0.30;;;16.50;60.30;;;;;;5064430;28;20056;-21
2022/02/27 07:13:58;;;;;;;0.28;0.28;;;16.50;60.10;;;;;;5064216;28;20041;-21
2022/02/27 07:16:24;;;;;;;0.40;0.30;;;16.50;59.90;;;;;;5068270;28;20044;-22
2022/02/27 07:18:50;;;;;;;0.40;0.40;;;16.50;60.00;;;;;;5064373;28;20064;-21
2022/02/27 07:21:16;;;;;;;0.28;0.28;;;16.50;59.90;;;;;;5066765;28;20040;-20
2022/02/27 07:23:41;;;;;;;0.57;0.40;;;16.50;59.90;;;;;;5066269;28;20043;-21
2022/02/27 07:26:07;;;;;;;0.30;0.30;;;16.50;59.80;;;;;;5067448;28;20048;-21
2022/02/27 07:28:33;;;;;;;0.30;0.30;;;16.60;59.80;;;;;;5065608;28;20421;-22
2022/02/27 07:30:58;;;;;;;0.40;0.40;;;16.50;59.80;;;;;;5066509;28;20110;-21
2022/02/27 07:33:24;;;;;;;0.40;0.40;;;16.50;59.80;;;;;;5069628;28;20396;-20
2022/02/27 07:35:50;;;;;;;0.30;0.30;;;16.50;59.80;;;;;;5073122;28;20051;-20
2022/02/27 07:38:15;;;;;;;0.30;0.30;;;16.50;59.80;;;;;;5066487;28;20036;-20
2022/02/27 07:40:41;;;;;;;0.20;0.20;;;16.50;59.90;;;;;;5067344;28;20100;-21
2022/02/27 07:43:06;;;;;;;0.40;0.40;;;16.50;59.80;;;;;;5064113;28;20087;-21
2022/02/27 07:45:32;;;;;;;0.40;0.40;;;16.50;59.70;;;;;;5063712;28;20118;-21
2022/02/27 07:47:58;;;;;;;0.50;0.50;;;16.50;59.80;;;;;;5070937;28;20078;-21
2022/02/27 07:50:24;;;;;;;0.45;0.45;;;16.50;59.80;;;;;;5070695;28;20040;-21
2022/02/27 07:52:49;;;;;;;0.35;0.35;;;16.50;59.90;;;;;;5063934;28;20517;-21
2022/02/27 07:55:18;;;;;;;0.50;0.50;;;16.50;59.80;;;;;;5068220;28;20528;-21
2022/02/27 07:57:44;;;;;;;0.63;0.60;;;16.40;60.30;;;;;;5066179;28;20041;-21
2022/02/27 08:00:09;;;;;;;0.50;0.50;;;16.40;60.30;;;;;;5065962;28;20073;-21
2022/02/27 08:02:35;;;;;;;1.63;0.65;;;16.50;60.30;;;;;;5070478;28;20583;-22
2022/02/27 08:05:01;;;;;;;0.70;0.40;;;16.50;60.30;;;;;;5068074;28;20127;-21
2022/02/27 08:07:26;;;;;;;1.38;0.50;;;16.50;60.50;;;;;;5070086;28;20414;-21
2022/02/27 08:09:52;;;;;;;0.93;0.40;;;16.50;60.40;;;;;;5065087;28;20409;-21
2022/02/27 08:12:18;;;;;;;0.43;0.40;;;16.50;60.50;;;;;;5068798;28;20046;-21
2022/02/27 08:14:46;;;;;;;1.67;0.50;;;16.50;60.50;;;;;;5066415;28;20043;-21
2022/02/27 08:17:13;;;;;;;0.60;0.60;;;16.50;60.50;;;;;;5063486;28;20063;-20
2022/02/27 08:19:39;;;;;;;0.50;0.50;;;16.40;60.40;;;;;;5064400;28;20053;-20
2022/02/27 08:22:04;;;;;;;0.82;0.60;;;16.40;60.60;;;;;;5068643;28;20048;-20
2022/02/27 08:24:30;;;;;;;0.47;0.47;;;16.50;60.50;;;;;;5063629;28;20290;-21
2022/02/27 08:26:56;;;;;;;0.63;0.63;;;16.50;60.50;;;;;;5065964;28;20029;-21
2022/02/27 08:29:22;;;;;;;0.77;0.30;;;16.40;60.30;;;;;;5062664;28;20390;-20
2022/02/27 08:31:48;;;;;;;1.33;0.30;;;16.50;60.30;;;;;;5070339;28;20059;-21
2022/02/27 08:34:13;;;;;;;0.30;0.30;;;16.50;60.20;;;;;;5066210;28;20130;-21
2022/02/27 08:36:39;;;;;;;0.60;0.40;;;16.50;60.20;;;;;;5063579;28;20075;-21
2022/02/27 08:39:05;;;;;;;0.40;0.40;;;16.50;60.20;;;;;;5065962;28;20044;-21
2022/02/27 08:41:31;;;;;;;0.38;0.38;;;16.50;60.20;;;;;;5067279;28;20040;-21
2022/02/27 08:43:57;;;;;;;0.47;0.47;;;16.50;60.00;;;;;;5065029;28;20052;-21
2022/02/27 08:46:22;;;;;;;0.38;0.38;;;16.50;60.10;;;;;;5066632;28;20047;-21
2022/02/27 08:48:48;;;;;;;0.73;0.50;;;16.50;60.10;;;;;;5067237;28;20520;-21
2022/02/27 08:51:14;;;;;;;0.40;0.40;;;16.50;60.10;;;;;;5069002;28;20036;-21
2022/02/27 08:53:40;;;;;;;0.20;0.20;;;16.50;60.10;;;;;;5066265;28;20083;-21
2022/02/27 08:56:05;;;;;;;0.30;0.30;;;16.40;60.10;;;;;;5067351;28;20053;-21
2022/02/27 08:58:31;;;;;;;0.50;0.50;;;16.40;60.00;;;;;;5060799;28;20048;-20
2022/02/27 09:00:56;;;;;;;0.40;0.30;;;16.50;60.00;;;;;;5065280;28;20377;-21
2022/02/27 09:03:24;;;;;;;0.52;0.52;;;16.50;59.90;;;;;;5068217;28;20052;-22
2022/02/27 09:05:51;;;;;;;0.50;0.50;;;16.50;60.50;;;;;;5064716;28;20041;-21
2022/02/27 09:08:18;;;;;;;0.40;0.40;;;16.60;61.00;;;;;;5059957;28;20053;-22
2022/02/27 09:10:43;;;;;;;0.35;0.35;;;16.60;61.10;;;;;;5063391;28;20086;-22
2022/02/27 09:13:09;;;;;;;0.65;0.50;;;16.50;61.40;;;;;;5061336;28;20500;-21
2022/02/27 09:15:35;;;;;;;0.40;0.40;;;16.60;61.60;;;;;;4708289;28;10000144;-21
2022/02/27 09:18:01;;;;;;;1.65;0.40;;;16.50;61.40;;;;;;5069533;28;20123;-20
2022/02/27 09:20:27;;;;;;;1.58;0.50;;;16.60;61.80;;;;;;5068480;28;20101;-21
2022/02/27 09:22:52;;;;;;;0.50;0.50;;;16.60;61.80;;;;;;5064412;28;20052;-21
2022/02/27 09:25:18;;;;;;;0.47;0.40;;;16.60;62.00;;;;;;5070117;28;20048;-21
2022/02/27 09:27:44;;;;;;;0.30;0.30;;;16.70;61.80;;;;;;5063798;28;20067;-21
2022/02/27 09:30:12;;;;;;;0.30;0.30;;;16.70;61.70;;;;;;5067210;28;20056;-21
2022/02/27 09:32:41;;;;;;;4.32;0.63;;;16.70;61.70;;;;;;5068096;28;20170;-21
2022/02/27 09:35:07;;;;;;;1.70;0.60;;;16.80;61.90;;;;;;5067912;28;20049;-21
2022/02/27 09:37:34;;;;;;;0.40;0.40;;;16.80;61.60;;;;;;5069438;28;20201;-21
2022/02/27 09:39:59;;;;;;;0.30;0.30;;;16.90;61.50;;;;;;5068008;28;20044;-21
2022/02/27 09:42:32;;;;;;;0.50;0.50;;;16.90;61.50;;;;;;5069194;28;20052;-20
2022/02/27 09:44:58;;;;;;;0.50;0.50;;;16.90;61.40;;;;;;5067328;28;20112;-20
2022/02/27 09:47:23;;;;;;;2.05;0.40;;;16.90;61.10;;;;;;5068293;28;20128;-20
2022/02/27 09:49:49;;;;;;;0.60;0.55;;;16.90;61.40;;;;;;5067859;28;20182;-21
2022/02/27 09:52:18;;;;;;;0.90;0.50;;;17.00;61.70;;;;;;5068951;28;20033;-21
2022/02/27 09:54:44;;;;;;;0.50;0.40;;;17.00;61.30;;;;;;5067939;28;20080;-20
2022/02/27 09:57:17;;;;;;;0.47;0.47;;;17.10;61.50;;;;;;5069175;28;20055;-20
2022/02/27 09:59:43;;;;;;;2.17;0.52;;;17.10;61.40;;;;;;5068671;28;20533;-20
2022/02/27 10:02:08;;;;;;;2.22;0.45;;;17.10;61.60;;;;;;5070601;28;20409;-20
2022/02/27 10:04:36;;;;;;;1.73;0.50;;;17.10;61.30;;;;;;5066715;28;20036;-20
2022/02/27 10:07:06;;;;;;;0.55;0.50;;;17.10;62.20;;;;;;5067698;28;20052;-20
2022/02/27 10:09:31;;;;;;;0.50;0.50;;;17.10;61.60;;;;;;5049574;28;20072;-20
2022/02/27 10:12:20;;;;;;;1.80;0.70;;;17.20;61.50;;;;;;5070957;28;20063;-21
2022/02/27 10:15:03;;;;;;;0.52;0.40;;;17.20;61.10;;;;;;5066330;28;20052;-21
2022/02/27 10:17:33;;;;;;;0.70;0.50;;;17.20;60.60;;;;;;5058665;28;20033;-20
2022/02/27 10:19:59;;;;;;;2.92;0.50;;;17.30;60.90;;;;;;5069017;28;20539;-20
2022/02/27 10:22:29;;;;;;;2.67;1.17;;;17.30;61.40;;;;;;5071742;28;20419;-21
2022/02/27 10:24:54;;;;;;;2.15;0.57;;;17.30;60.80;;;;;;5074746;28;20055;-20
2022/02/27 10:27:21;;;;;;;0.40;0.40;;;17.30;60.90;;;;;;5066798;28;20536;-21
2022/02/27 10:29:46;;;;;;;1.75;0.50;;;17.30;61.20;;;;;;5071663;28;20040;-21
2022/02/27 10:32:12;;;;;;;2.63;0.60;;;17.40;61.20;;;;;;5077755;28;20041;-21
2022/02/27 10:34:38;;;;;;;0.73;0.60;;;17.40;61.10;;;;;;5069148;28;20039;-20
2022/02/27 10:37:16;;;;;;;0.93;0.50;;;17.40;61.10;;;;;;5061637;28;20414;-21
2022/02/27 10:39:43;;;;;;;3.30;0.57;;;17.40;61.60;;;;;;5077453;28;20070;-21
2022/02/27 10:42:16;;;;;;;3.58;0.80;;;17.40;60.90;;;;;;5071596;28;20072;-21
2022/02/27 10:45:01;;;;;;;2.17;0.60;;;17.40;61.10;;;;;;5068139;28;20127;-22
2022/02/27 10:47:31;;;;;;;5.20;1.48;;;17.50;61.00;;;;;;5073265;28;20650;-21
2022/02/27 10:49:59;;;;;;;1.13;0.70;;;17.50;61.30;;;;;;5062156;28;20044;-21
2022/02/27 10:52:31;;;;;;;1.60;0.90;;;17.50;61.70;;;;;;5059456;28;20069;-21
2022/02/27 10:55:07;;;;;;;2.28;0.70;;;17.50;61.80;;;;;;5072768;28;20047;-21
2022/02/27 10:57:51;;;;;;;1.92;1.10;;;17.50;62.10;;;;;;5073698;28;20044;-21
2022/02/27 11:00:19;;;;;;;1.40;1.08;;;17.50;62.30;;;;;;5073824;28;20043;-22
2022/02/27 11:02:46;;;;;;;2.83;1.20;;;17.50;62.70;;;;;;5073338;28;20054;-20
2022/02/27 11:05:13;;;;;;;2.63;1.35;;;17.50;63.10;;;;;;5070960;28;20068;-22
2022/02/27 11:07:41;;;;;;;2.08;1.80;;;17.60;63.80;;;;;;5073189;28;20041;-21
2022/02/27 11:10:09;;;;;;;3.50;1.70;;;17.60;64.40;;;;;;5074144;28;20040;-20
2022/02/27 11:12:36;;;;;;;3.75;1.80;;;17.60;64.10;;;;;;5071836;28;20048;-21
2022/02/27 11:15:02;;;;;;;4.13;2.70;;;17.60;64.20;;;;;;5063527;28;20049;-21
2022/02/27 11:17:28;;;;;;;5.40;3.13;;;17.70;65.30;;;;;;5073142;28;20052;-21
2022/02/27 11:19:54;;;;;;;5.13;2.92;;;17.60;64.60;;;;;;5070828;28;20057;-21
2022/02/27 11:22:20;;;;;;;5.47;2.42;;;17.70;65.60;;;;;;5072016;28;20049;-21
2022/02/27 11:24:46;;;;;;;4.60;2.45;;;17.70;65.20;;;;;;5050255;28;20102;-21
2022/02/27 11:27:13;;;;;;;4.00;2.20;;;17.60;65.10;;;;;;5071180;28;20068;-22
2022/02/27 11:29:41;;;;;;;3.05;2.15;;;17.70;65.20;;;;;;5069639;28;20043;-21
2022/02/27 11:32:06;;;;;;;4.75;2.10;;;17.70;64.90;;;;;;5067575;28;20052;-21
2022/02/27 11:34:39;;;;;;;2.92;2.20;;;17.70;64.80;;;;;;5071851;28;20050;-21
2022/02/27 11:37:04;;;;;;;5.30;2.60;;;17.60;64.90;;;;;;5070337;28;20351;-21
2022/02/27 11:42:14;;;;;;;7.18;2.22;;;17.70;64.60;;;;;;5072771;28;20051;-21
2022/02/27 11:44:40;;;;;;;4.20;2.38;;;17.70;64.80;;;;;;5064127;28;20045;-22
2022/02/27 11:47:10;;;;;;;5.82;2.33;;;17.70;64.50;;;;;;5066479;28;20049;-20
2022/02/27 11:49:42;;;;;;;10.23;2.97;;;17.70;64.50;;;;;;5070920;28;20080;-21
2022/02/27 11:52:09;;;;;;;6.40;2.60;;;17.70;64.20;;;;;;5071089;28;20447;-21
2022/02/27 11:54:39;;;;;;;7.65;2.63;;;17.70;64.20;;;;;;5070808;28;20083;-20
2022/02/27 11:57:13;;;;;;;10.98;2.90;;;17.80;63.70;;;;;;5066859;28;20061;-20
2022/02/27 11:59:49;;;;;;;10.27;2.50;;;17.80;62.40;;;;;;5061680;28;20052;-20
2022/02/27 12:02:32;;;;;;;7.85;2.00;;;17.70;62.30;;;;;;5056938;28;20229;-21
2022/02/27 12:04:59;;;;;;;11.32;2.60;;;17.70;62.30;;;;;;5068743;28;20040;-21
2022/02/27 12:07:26;;;;;;;8.75;2.30;;;17.60;61.80;;;;;;5060451;28;20076;-20
2022/02/27 12:09:52;;;;;;;9.60;1.92;;;17.60;62.30;;;;;;5057699;28;20046;-21
2022/02/27 12:12:40;;;;;;;4.15;2.03;;;17.60;63.20;;;;;;5069408;28;20044;-21
2022/02/27 12:15:36;;;;;;;6.85;2.58;;;17.60;63.40;;;;;;5061997;28;20037;-20
2022/02/27 12:18:07;;;;;;;7.55;2.60;;;17.60;63.80;;;;;;5057597;28;20057;-21
2022/02/27 12:20:43;;;;;;;12.50;3.05;;;17.60;63.70;;;;;;5062046;28;20036;-21
2022/02/27 12:23:10;;;;;;;13.90;3.10;;;17.60;63.70;;;;;;5064902;28;20041;-20
2022/02/27 12:25:40;;;;;;;12.60;3.67;;;17.60;63.60;;;;;;5062293;28;20051;-21
2022/02/27 12:28:06;;;;;;;9.13;3.10;;;17.60;63.70;;;;;;5061299;28;20109;-20
2022/02/27 12:30:32;;;;;;;9.07;3.08;;;17.60;63.70;;;;;;5061124;28;20088;-21
2022/02/27 12:33:06;;;;;;;9.05;3.15;;;17.60;63.60;;;;;;5069597;28;20052;-21
2022/02/27 12:35:41;;;;;;;8.15;2.85;;;17.60;63.50;;;;;;5061076;28;20047;-21
2022/02/27 12:38:08;;;;;;;10.00;2.60;;;17.60;63.70;;;;;;5064981;28;20052;-20
2022/02/27 12:40:34;;;;;;;5.43;2.83;;;17.60;63.50;;;;;;5059670;28;20058;-21
2022/02/27 12:43:04;;;;;;;7.18;2.78;;;17.60;63.30;;;;;;5065891;28;20132;-21
2022/02/27 12:45:35;;;;;;;12.30;2.63;;;17.60;63.30;;;;;;5063140;28;20404;-20